EGPF/GLA METAR and TAF weather

Enter ICAO airport designator
Station Type Date Time Source
EGPF METAR 2024/04/23 04:50 UTC NOAA

EGPF 230450Z VRB02KT 9999 R05/0350N BCFG FEW007 02/01 Q1028


Station Type Date Time Source
EGPF Decoded METAR 2024/04/23 04:50 UTC NOAA

Glasgow Airport, United Kingdom (EGPF) 55-52N 004-26W 0M
Apr 23, 2024 - 12:50 AM EDT / 2024.04.23 0450 UTC
Wind: Variable at 2 MPH (2 KT):0
Visibility: greater than 7 mile(s):0
Sky conditions: mostly clear
Weather: patches of fog
Temperature: 35 F (2 C)
Dew Point: 33 F (1 C)
Relative Humidity: 93%
Pressure (altimeter): 30.36 in. Hg (1028 hPa)
ob: EGPF 230450Z VRB02KT 9999 R05/0350N BCFG FEW007 02/01 Q1028
cycle: 5

Station Type Date Time Source
EGPF TAF 2024/04/23 04:13 UTC NOAA